Time;durP1;ratioP1;P1;durP2;ratioP2;P2;SDS_P1;SDS_P2;PMS_P1;PMS_P2;Temp;Humidity;BMP_temperature;BMP_pressure;BME280_temperature;BME280_humidity;BME280_pressure;Samples;Min_cycle;Max_cycle;Signal;HPM_P1;HPM_P2
2022/08/07 00:01:37;;;;;;;;;;;;;;;28.56;43.77;100788.19;5013479;28;19913;-57
2022/08/07 00:04:21;;;;;;;;;;;;;;;28.56;44.15;100785.41;5010850;28;19914;-57
2022/08/07 00:07:05;;;;;;;;;;;;;;;28.64;43.79;100792.41;5021837;28;19913;-57
2022/08/07 00:09:50;;;;;;;;;;;;;;;28.63;44.05;100802.03;5022464;28;19917;-57
2022/08/07 00:12:34;;;;;;;;;;;;;;;28.73;44.08;100812.22;5010807;28;19913;-57
2022/08/07 00:15:19;;;;;;;;;;;;;;;28.76;44.16;100822.53;5015534;28;19913;-58
2022/08/07 00:18:03;;;;;;;;;;;;;;;28.68;44.18;100821.09;5008696;28;20373;-57
2022/08/07 00:20:48;;;;;;;;;;;;;;;28.69;44.43;100833.88;5011157;28;19913;-57
2022/08/07 00:23:34;;;;;;;;;;;;;;;28.62;44.63;100848.03;5011194;28;20392;-56
2022/08/07 00:26:18;;;;;;;;;;;;;;;28.58;44.81;100855.72;5013865;28;19913;-56
2022/08/07 00:29:03;;;;;;;;;;;;;;;27.70;50.55;100872.34;5010807;28;19921;-67
2022/08/07 07:32:50;;;;;;;;;;;;;;;26.18;62.33;100928.47;4941107;29;19919;-82
2022/08/07 07:35:35;;;;;;;;;;;;;;;26.28;62.04;100937.94;4933895;29;19915;-81
2022/08/07 07:38:24;;;;;;;;;;;;;;;26.34;61.83;100930.69;4952645;28;19914;-81
2022/08/07 07:44:27;;;;;;;;;;;;;;;26.27;61.55;100920.41;4934394;29;20195;-58
2022/08/07 07:47:13;;;;;;;;;;;;;;;26.52;61.39;100920.09;4923510;29;19914;-58
2022/08/07 07:49:58;;;;;;;;;;;;;;;26.57;61.35;100924.41;4920658;29;19915;-58
2022/08/07 07:52:43;;;;;;;;;;;;;;;26.51;61.09;100924.09;4933462;29;20294;-58
2022/08/07 07:55:28;;;;;;;;;;;;;;;26.54;61.23;100919.66;4930618;29;19915;-58
2022/08/07 07:58:13;;;;;;;;;;;;;;;26.58;60.75;100912.84;4932870;29;19915;-58
2022/08/07 08:00:59;;;;;;;;;;;;;;;26.49;60.96;100917.34;4933028;29;19931;-58
2022/08/07 08:03:43;;;;;;;;;;;;;;;26.51;60.74;100912.94;4934220;29;19914;-58
2022/08/07 08:06:30;;;;;;;;;;;;;;;26.38;60.80;100911.91;4924503;29;19919;-58
2022/08/07 08:09:17;;;;;;;;;;;;;;;26.41;60.84;100924.25;4930573;29;19918;-58
2022/08/07 08:12:02;;;;;;;;;;;;;;;26.45;60.68;100913.81;4934243;28;19926;-57
2022/08/07 08:14:47;;;;;;;;;;;;;;;26.48;60.68;100922.13;4925842;29;19918;-58
2022/08/07 08:17:34;;;;;;;;;;;;;;;26.61;59.67;100922.38;4918237;29;19915;-58
2022/08/07 08:20:19;;;;;;;;;;;;;;;26.58;59.56;100920.41;4940701;29;19914;-58
2022/08/07 08:29:15;;;;;;;;;;;;;;;26.71;59.45;100915.84;4936805;29;19915;-57
2022/08/07 08:32:01;;;;;;;;;;;;;;;26.80;60.25;100919.69;4937445;29;20349;-58
2022/08/07 08:34:52;;;;;;;;;;;;;;;26.77;60.56;100926.09;4936169;28;20382;-57
2022/08/07 08:37:37;;;;;;;;;;;;;;;26.76;60.93;100918.19;4930773;28;19915;-58
2022/08/07 08:40:25;;;;;;;;;;;;;;;26.75;60.29;100920.16;4936603;29;19915;-57
2022/08/07 08:43:29;;;;;;;;;;;;;;;26.67;59.74;100920.66;4936938;29;20313;-58
2022/08/07 08:46:13;;;;;;;;;;;;;;;26.66;59.72;100919.13;4937190;29;19915;-58
2022/08/07 08:49:05;;;;;;;;;;;;;;;26.61;60.24;100919.59;4941993;29;20290;-58
2022/08/07 08:52:00;;;;;;;;;;;;;;;26.48;61.31;100932.50;4934561;29;19949;-58
2022/08/07 08:54:53;;;;;;;;;;;;;;;26.31;60.63;100935.09;4936794;29;20359;-58
2022/08/07 08:57:45;;;;;;;;;;;;;;;26.60;60.64;100931.94;4936608;29;19915;-58
2022/08/07 09:00:34;;;;;;;;;;;;;;;26.53;60.88;100943.19;4936756;29;19919;-57
2022/08/07 09:03:19;;;;;;;;;;;;;;;26.13;62.53;100948.44;4936538;29;19915;-57
2022/08/07 09:06:07;;;;;;;;;;;;;;;26.19;62.43;100941.19;4941447;29;19915;-58
2022/08/07 09:08:54;;;;;;;;;;;;;;;26.60;61.00;100924.38;4938507;29;19915;-57
2022/08/07 09:11:57;;;;;;;;;;;;;;;26.76;59.90;100934.91;4936289;29;19918;-57
2022/08/07 09:14:44;;;;;;;;;;;;;;;26.56;58.21;100934.78;4933318;28;19914;-58
2022/08/07 09:17:34;;;;;;;;;;;;;;;26.12;60.91;100934.91;4937068;29;20290;-58
2022/08/07 09:20:25;;;;;;;;;;;;;;;25.11;65.92;100933.44;4936337;29;19914;-61
2022/08/07 09:23:25;;;;;;;;;;;;;;;25.85;64.34;100927.22;4936787;29;20190;-70
2022/08/07 09:26:12;;;;;;;15.48;3.25;;;;;;;25.60;65.03;100931.50;4935904;29;20428;-66
2022/08/07 09:29:08;;;;;;;6.03;2.25;;;;;;;25.48;65.91;100925.19;4936066;29;20518;-61
2022/08/07 09:31:59;;;;;;;3.72;2.40;;;;;;;25.77;65.54;100927.72;4935342;29;20055;-68
2022/08/07 09:34:50;;;;;;;7.10;2.65;;;;;;;25.65;65.27;100928.25;4935614;29;20056;-61
2022/08/07 09:37:57;;;;;;;10.52;2.78;;;;;;;25.73;65.31;100924.19;4928386;29;20055;-68
2022/08/07 09:41:05;;;;;;;4.32;1.80;;;;;;;25.41;65.64;100933.59;4929066;29;20043;-64
2022/08/07 09:44:11;;;;;;;5.68;2.67;;;;;;;25.68;64.32;100924.63;4935866;29;20054;-64
2022/08/07 09:47:08;;;;;;;5.80;2.25;;;;;;;26.25;62.89;100922.03;4935249;29;20611;-65
2022/08/07 09:50:24;;;;;;;3.40;2.33;;;;;;;26.26;62.94;100924.41;4935482;29;20066;-63
2022/08/07 09:53:11;;;;;;;6.70;1.92;;;;;;;26.28;62.93;100919.22;4930003;29;20055;-62
2022/08/07 09:56:09;;;;;;;2.88;1.77;;;;;;;25.97;62.27;100918.34;4935514;29;20047;-62
2022/08/07 09:59:06;;;;;;;6.88;1.83;;;;;;;26.69;60.18;100907.09;4934792;29;20058;-62
2022/08/07 10:02:23;;;;;;;7.53;2.75;;;;;;;26.34;62.89;100913.97;4919011;29;20043;-62
2022/08/07 10:05:31;;;;;;;3.95;2.65;;;;;;;26.50;61.22;100913.34;4928627;28;20051;-62
2022/08/07 10:08:54;;;;;;;2.67;1.73;;;;;;;27.32;57.56;100910.16;4913644;29;20050;-62
2022/08/07 10:12:06;;;;;;;2.90;1.35;;;;;;;27.74;55.58;100903.81;4913413;29;20047;-62
2022/08/07 10:15:00;;;;;;;2.92;1.40;;;;;;;27.57;54.90;100896.56;4918010;29;20043;-62
2022/08/07 10:18:17;;;;;;;4.33;1.70;;;;;;;28.03;54.01;100899.25;4914120;29;20113;-62
2022/08/07 10:21:23;;;;;;;4.03;1.35;;;;;;;27.71;54.08;100898.28;4929353;28;20055;-62
2022/08/07 10:24:32;;;;;;;3.28;1.00;;;;;;;27.76;53.65;100884.63;4914748;29;20055;-61
2022/08/07 10:27:26;;;;;;;1.10;1.00;;;;;;;27.26;54.25;100883.91;4912993;29;20188;-61
2022/08/07 10:30:18;;;;;;;2.15;1.00;;;;;;;27.09;54.55;100877.41;4915828;29;20075;-61
2022/08/07 10:33:21;;;;;;;1.52;1.38;;;;;;;27.20;54.64;100873.22;4914921;29;20055;-63
2022/08/07 10:36:51;;;;;;;1.33;1.00;;;;;;;26.93;54.88;100863.31;4926340;29;20047;-62
2022/08/07 10:39:41;;;;;;;1.75;0.88;;;;;;;26.70;54.59;100858.47;4944313;29;20070;-62
2022/08/07 10:42:55;;;;;;;4.35;0.88;;;;;;;27.22;52.87;100862.44;4928518;29;20038;-62
2022/08/07 10:45:51;;;;;;;3.50;0.80;;;;;;;27.10;52.31;100853.84;4928565;29;20051;-62
2022/08/07 10:48:49;;;;;;;0.77;0.77;;;;;;;27.24;52.17;100857.19;4927806;29;20043;-62
2022/08/07 10:52:02;;;;;;;0.77;0.70;;;;;;;27.77;51.43;100863.03;4926818;29;20055;-62
2022/08/07 10:54:58;;;;;;;0.95;0.77;;;;;;;28.08;49.42;100856.03;4931966;29;20054;-62
2022/08/07 10:58:08;;;;;;;2.42;1.13;;;;;;;28.57;48.44;100865.34;4948912;29;20058;-62
2022/08/07 11:01:18;;;;;;;1.20;0.80;;;;;;;28.98;47.36;100856.41;4953509;28;20046;-62
2022/08/07 11:04:30;;;;;;;1.15;0.65;;;;;;;28.90;47.98;100866.97;4953439;29;20054;-62
2022/08/07 11:07:21;;;;;;;1.08;0.68;;;;;;;29.07;47.68;100861.38;4949983;29;20038;-62
2022/08/07 11:10:33;;;;;;;1.17;0.77;;;;;;;29.14;47.62;100847.19;4914785;29;20074;-63
2022/08/07 11:13:56;;;;;;;0.80;0.65;;;;;;;29.72;45.00;100853.66;4914679;29;20051;-62
2022/08/07 11:16:58;;;;;;;0.93;0.80;;;;;;;29.88;43.88;100855.63;4936972;29;20062;-62
2022/08/07 11:19:56;;;;;;;0.80;0.63;;;;;;;29.84;42.66;100849.31;4942520;28;20422;-62
2022/08/07 11:22:48;;;;;;;7.07;0.90;;;;;;;30.35;41.83;100848.22;4941167;29;20047;-64
2022/08/07 11:25:45;;;;;;;4.88;0.70;;;;;;;32.39;37.86;100852.03;4932832;29;20055;-61
2022/08/07 11:28:37;;;;;;;3.55;0.90;;;;;;;34.60;33.91;100844.78;4933306;29;20054;-61
2022/08/07 11:31:36;;;;;;;1.25;0.80;;;;;;;33.41;35.33;100835.75;4932386;29;20070;-60
2022/08/07 11:34:54;;;;;;;2.40;0.95;;;;;;;32.36;37.96;100833.25;4932106;29;20051;-59
2022/08/07 11:37:49;;;;;;;10.02;0.90;;;;;;;35.06;33.24;100836.84;4935756;29;20054;-60
2022/08/07 11:40:55;;;;;;;5.22;0.73;;;;;;;34.96;32.39;100841.00;4924397;29;20410;-59
2022/08/07 11:43:52;;;;;;;2.55;1.02;;;;;;;32.68;36.62;100835.59;4929475;29;20059;-61
2022/08/07 11:46:59;;;;;;;2.45;1.02;;;;;;;32.51;38.73;100834.28;4933401;29;20623;-61
2022/08/07 11:49:56;;;;;;;6.18;1.20;;;;;;;32.58;36.80;100831.16;4920132;29;20522;-60
2022/08/07 11:52:48;;;;;;;0.93;0.75;;;;;;;32.41;37.33;100827.03;4937782;29;20059;-60
2022/08/07 11:55:58;;;;;;;4.25;1.10;;;;;;;31.96;38.96;100824.72;4903263;29;20043;-55
2022/08/07 11:59:01;;;;;;;1.02;0.80;;;;;;;31.12;39.70;100813.28;4931552;29;20051;-56
2022/08/07 12:02:07;;;;;;;1.00;0.80;;;;;;;30.44;41.61;100811.84;4916693;29;20040;-57
2022/08/07 12:05:11;;;;;;;0.90;0.80;;;;;;;30.02;41.90;100807.56;4917150;29;20050;-56
2022/08/07 12:07:59;;;;;;;1.92;1.08;;;;;;;29.89;43.52;100815.13;4929344;29;20047;-56
2022/08/07 12:11:13;;;;;;;3.20;1.05;;;;;;;29.60;43.60;100799.13;4928254;29;20059;-56
2022/08/07 12:14:10;;;;;;;2.30;1.08;;;;;;;29.56;44.41;100801.22;4943955;29;20058;-56
2022/08/07 12:17:02;;;;;;;1.02;0.93;;;;;;;29.42;43.19;100798.03;4926106;29;20114;-56
2022/08/07 12:20:19;;;;;;;1.98;1.00;;;;;;;29.29;44.68;100792.38;4940265;28;20395;-56
2022/08/07 12:23:22;;;;;;;0.82;0.80;;;;;;;29.24;44.03;100796.50;4945169;29;20517;-57
2022/08/07 12:26:21;;;;;;;1.67;1.42;;;;;;;29.29;44.43;100789.56;4939925;29;20406;-57
2022/08/07 12:29:29;;;;;;;1.60;0.90;;;;;;;29.35;43.69;100779.44;4923971;29;20054;-55
2022/08/07 12:32:26;;;;;;;0.85;0.80;;;;;;;29.46;44.09;100782.69;4929899;29;20047;-55
2022/08/07 12:35:13;;;;;;;1.35;0.90;;;;;;;29.49;43.61;100776.22;4933395;29;20054;-56
2022/08/07 12:37:59;;;;;;;1.00;0.90;;;;;;;29.37;42.73;100779.75;4932924;29;20047;-56
2022/08/07 12:40:46;;;;;;;1.13;0.80;;;;;;;29.40;43.93;100775.28;4936079;29;20416;-56
2022/08/07 12:43:34;;;;;;;1.20;1.00;;;;;;;29.44;40.88;100776.78;4938148;29;20388;-55
2022/08/07 12:46:34;;;;;;;0.95;0.73;;;;;;;29.42;41.71;100773.63;4922448;29;20052;-55
2022/08/07 12:49:47;;;;;;;2.33;0.75;;;;;;;29.53;42.57;100773.31;4934525;29;20620;-56
2022/08/07 12:52:41;;;;;;;0.80;0.77;;;;;;;29.40;43.23;100758.47;4931771;29;20055;-56
2022/08/07 12:55:30;;;;;;;0.90;0.77;;;;;;;29.45;42.22;100755.13;4939646;28;20047;-56
2022/08/07 12:58:16;;;;;;;0.85;0.70;;;;;;;29.46;41.73;100756.72;4938133;29;20055;-56
2022/08/07 13:01:05;;;;;;;3.10;0.60;;;;;;;29.39;42.14;100759.72;4936234;29;20412;-56
2022/08/07 13:04:20;;;;;;;0.85;0.80;;;;;;;29.42;42.19;100748.38;4945625;29;20069;-56
2022/08/07 13:07:23;;;;;;;2.72;1.10;;;;;;;29.49;42.99;100748.19;4954745;29;20046;-55
2022/08/07 13:10:39;;;;;;;1.75;0.88;;;;;;;29.45;41.67;100741.13;4939401;28;20050;-56
2022/08/07 13:13:35;;;;;;;0.88;0.80;;;;;;;29.56;40.66;100738.81;4918293;29;20404;-55
2022/08/07 13:16:25;;;;;;;1.45;1.02;;;;;;;29.69;41.27;100728.41;4921967;29;20538;-56
2022/08/07 13:19:29;;;;;;;4.70;0.88;;;;;;;29.58;42.01;100728.72;4916891;28;20066;-55
2022/08/07 13:22:30;;;;;;;0.98;0.77;;;;;;;29.56;42.51;100719.94;4927831;28;20134;-54
2022/08/07 13:25:29;;;;;;;17.15;13.23;;;;;;;29.50;42.08;100721.75;4932271;29;20047;-55
2022/08/07 13:28:27;;;;;;;1.10;1.00;;;;;;;29.66;42.08;100721.66;4939028;29;20044;-55
2022/08/07 13:31:21;;;;;;;1.08;0.98;;;;;;;29.75;41.78;100707.78;4923566;28;20051;-56
2022/08/07 13:34:25;;;;;;;8.40;1.13;;;;;;;29.70;43.05;100701.94;4921997;29;21498;-55
2022/08/07 13:37:38;;;;;;;1.30;0.82;;;;;;;29.74;43.02;100695.00;4921381;28;20523;-54
2022/08/07 13:40:26;;;;;;;1.85;0.95;;;;;;;29.58;43.34;100697.88;4917058;28;20039;-55
2022/08/07 13:43:14;;;;;;;15.60;11.98;;;;;;;29.82;42.37;100689.94;5005591;22;20070;-57
2022/08/07 13:46:01;;;;;;;1.20;0.88;;;;;;;29.66;42.86;100679.59;4983594;28;20050;-55
2022/08/07 13:48:51;;;;;;;1.63;1.48;;;;;;;29.71;42.96;100681.84;4964999;28;20041;-57
2022/08/07 13:51:38;;;;;;;1.02;0.90;;;;;;;29.65;42.69;100680.84;4973814;28;20050;-57
2022/08/07 13:54:29;;;;;;;3.67;0.90;;;;;;;29.73;42.07;100679.38;4971266;28;20041;-55
2022/08/07 13:57:16;;;;;;;1.05;0.88;;;;;;;29.51;42.65;100672.84;4980159;28;20057;-56
2022/08/07 14:00:04;;;;;;;1.38;0.75;;;;;;;29.46;43.77;100678.25;4976046;28;20520;-56
2022/08/07 14:02:58;;;;;;;0.82;0.82;;;;;;;29.51;43.25;100674.91;4978305;28;20045;-57
2022/08/07 14:05:45;;;;;;;1.63;0.88;;;;;;;29.46;42.56;100665.00;4984059;28;20410;-56
2022/08/07 14:08:32;;;;;;;0.82;0.70;;;;;;;29.42;43.80;100672.72;4993476;28;20516;-57
2022/08/07 14:11:21;;;;;;;0.90;0.82;;;;;;;29.45;43.22;100663.44;4994793;28;20069;-55
2022/08/07 14:14:10;;;;;;;3.40;1.25;;;;;;;29.30;43.39;100659.47;5002805;28;20057;-56
2022/08/07 14:16:58;;;;;;;1.55;0.80;;;;;;;29.47;42.25;100652.56;4991046;28;20049;-56
2022/08/07 14:19:51;;;;;;;9.73;1.00;;;;;;;29.49;42.44;100655.72;4992886;28;20069;-57
2022/08/07 14:22:40;;;;;;;0.90;0.60;;;;;;;29.45;43.18;100645.84;4992953;28;20512;-57
2022/08/07 14:25:30;;;;;;;1.52;1.10;;;;;;;29.33;43.18;100633.38;4992879;28;20374;-56
2022/08/07 14:28:17;;;;;;;0.90;0.68;;;;;;;29.19;43.15;100637.38;4993499;28;20053;-56
2022/08/07 14:31:04;;;;;;;1.60;0.82;;;;;;;29.20;43.77;100640.94;5000445;28;20049;-56
2022/08/07 14:33:51;;;;;;;1.73;0.95;;;;;;;29.23;43.94;100631.66;4992586;28;20066;-56
2022/08/07 14:36:37;;;;;;;1.13;0.80;;;;;;;29.33;42.98;100633.38;4996269;28;20050;-55
2022/08/07 14:39:24;;;;;;;1.88;1.20;;;;;;;29.21;43.91;100634.88;4977821;28;20049;-55
2022/08/07 14:42:10;;;;;;;1.00;0.90;;;;;;;29.16;42.99;100637.44;4992631;28;20058;-56
2022/08/07 14:45:00;;;;;;;2.40;0.80;;;;;;;29.31;43.06;100630.22;4993430;28;20049;-55
2022/08/07 14:47:45;;;;;;;1.05;0.70;;;;;;;29.18;42.48;100635.78;4990708;28;20062;-55
2022/08/07 14:50:31;;;;;;;5.10;0.90;;;;;;;29.16;43.16;100626.25;4996978;28;20061;-56
2022/08/07 14:53:18;;;;;;;2.40;0.90;;;;;;;29.30;43.36;100631.44;4995207;28;20118;-56
2022/08/07 14:56:06;;;;;;;1.25;0.90;;;;;;;29.20;43.21;100622.13;4996537;28;20065;-58
2022/08/07 14:58:53;;;;;;;0.75;0.75;;;;;;;29.20;43.42;100632.56;4989626;28;20045;-56
2022/08/07 15:01:42;;;;;;;3.42;0.82;;;;;;;29.26;43.18;100633.53;4991871;28;20046;-57
2022/08/07 15:04:27;;;;;;;0.80;0.80;;;;;;;29.25;42.37;100634.81;4992193;28;20301;-56
2022/08/07 15:07:17;;;;;;;1.25;0.95;;;;;;;29.22;43.36;100633.66;4977051;28;20061;-57
2022/08/07 15:10:03;;;;;;;0.88;0.77;;;;;;;29.13;43.47;100635.53;4989545;28;20053;-57
2022/08/07 15:12:51;;;;;;;3.72;1.17;;;;;;;29.05;43.91;100640.59;4981543;28;20037;-56
2022/08/07 15:15:42;;;;;;;1.10;1.00;;;;;;;29.19;43.55;100642.97;4984046;28;20053;-58
2022/08/07 15:18:44;;;;;;;0.88;0.82;;;;;;;29.22;43.68;100655.28;4984900;28;20054;-56
2022/08/07 15:21:34;;;;;;;1.10;1.00;;;;;;;29.11;43.50;100654.78;4991593;28;20050;-57
2022/08/07 15:24:23;;;;;;;1.25;1.00;;;;;;;29.15;44.08;100649.91;4991875;28;20054;-58
2022/08/07 15:27:11;;;;;;;4.30;1.13;;;;;;;29.06;44.34;100658.16;4991470;28;20401;-58
2022/08/07 15:30:00;;;;;;;1.83;1.20;;;;;;;29.02;44.46;100655.44;4983037;28;20049;-57
2022/08/07 15:32:48;;;;;;;4.35;1.20;;;;;;;28.88;44.90;100665.03;4998897;28;20041;-56
2022/08/07 15:35:36;;;;;;;2.58;0.77;;;;;;;28.84;44.93;100666.38;4988712;28;20053;-58
2022/08/07 15:38:28;;;;;;;2.35;0.82;;;;;;;28.79;44.63;100664.91;4991250;28;20053;-57
2022/08/07 15:41:16;;;;;;;1.02;0.95;;;;;;;28.96;44.45;100667.63;4988824;28;20057;-58
2022/08/07 15:44:15;;;;;;;4.22;1.10;;;;;;;28.85;44.86;100663.09;4991219;28;20501;-56
2022/08/07 15:47:05;;;;;;;1.23;1.13;;;;;;;28.83;45.75;100662.00;4993660;28;20517;-56
2022/08/07 15:49:52;;;;;;;1.88;1.00;;;;;;;28.87;45.07;100662.69;4991405;28;20049;-58
2022/08/07 15:52:38;;;;;;;0.90;0.90;;;;;;;28.92;44.30;100656.53;5001951;28;20411;-57
2022/08/07 15:55:24;;;;;;;1.50;1.08;;;;;;;28.89;44.71;100661.03;4991269;28;20049;-58
2022/08/07 15:58:14;;;;;;;1.02;0.90;;;;;;;28.87;44.90;100657.88;4998633;28;20049;-56
2022/08/07 16:01:02;;;;;;;2.25;1.15;;;;;;;28.89;45.40;100640.63;4991268;28;20046;-56
2022/08/07 16:03:51;;;;;;;3.63;1.27;;;;;;;28.96;46.05;100639.63;4991374;28;20057;-57
2022/08/07 16:06:41;;;;;;;2.97;1.13;;;;;;;28.84;45.25;100641.97;4991650;28;20057;-56
2022/08/07 16:09:46;;;;;;;5.70;1.30;;;;;;;28.86;46.56;100636.69;4980282;28;20054;-56
2022/08/07 16:12:59;;;;;;;1.42;1.08;;;;;;;28.87;46.06;100634.69;4996823;28;20049;-56
2022/08/07 16:15:53;;;;;;;4.57;1.50;;;;;;;28.81;45.79;100639.25;4996461;28;20045;-57
2022/08/07 16:18:57;;;;;;;2.75;1.00;;;;;;;28.76;46.66;100637.78;4992237;28;20053;-57
2022/08/07 16:21:53;;;;;;;;;;;;;;;28.88;46.89;100639.06;4991874;28;20057;-55
2022/08/07 16:24:54;;;;;;;1.23;1.13;;;;;;;28.79;47.14;100636.13;4991350;28;19914;-56
2022/08/07 16:27:48;;;;;;;1.15;1.05;;;;;;;28.75;47.04;100633.41;5000019;28;20401;-56
2022/08/07 16:30:36;;;;;;;;;;;;;;;28.71;46.99;100624.28;4995032;28;20054;-56
2022/08/07 16:33:26;;;;;;;1.48;1.38;;;;;;;28.71;47.29;100629.09;4987840;28;19918;-58
2022/08/07 16:36:14;;;;;;;0.93;0.82;;;;;;;28.61;46.21;100625.34;4994761;28;20517;-57
2022/08/07 16:39:08;;;;;;;1.25;1.15;;;;;;;28.68;46.07;100624.38;4995257;28;20414;-55
2022/08/07 16:42:11;;;;;;;1.27;1.17;;;;;;;28.67;46.11;100618.00;4989608;28;20065;-57
2022/08/07 16:45:24;;;;;;;1.23;0.95;;;;;;;28.78;45.88;100612.94;4994550;28;20409;-57
2022/08/07 16:48:27;;;;;;;1.35;1.20;;;;;;;28.67;46.65;100618.00;4994216;28;20049;-57
2022/08/07 16:51:43;;;;;;;1.00;0.90;;;;;;;28.69;46.47;100621.16;4995098;28;20045;-57
2022/08/07 16:54:34;;;;;;;1.92;1.17;;;;;;;28.69;47.33;100609.16;4994306;28;20046;-58
2022/08/07 16:57:19;;;;;;;2.17;1.23;;;;;;;28.67;47.13;100620.81;4997244;28;20053;-56
2022/08/07 17:00:08;;;;;;;1.52;1.27;;;;;;;28.65;47.10;100616.88;4994025;28;20534;-58
2022/08/07 17:02:53;;;;;;;1.58;1.17;;;;;;;28.60;47.73;100612.59;4999777;28;20140;-57
2022/08/07 17:05:56;;;;;;;3.13;1.10;;;;;;;28.60;47.55;100614.63;4995085;28;20053;-56
2022/08/07 17:09:06;;;;;;;1.58;1.00;;;;;;;28.64;47.67;100613.31;4987147;28;20045;-57
2022/08/07 17:12:08;;;;;;;1.77;1.17;;;;;;;28.61;47.82;100610.56;4997097;28;20061;-57
2022/08/07 17:15:06;;;;;;;1.85;1.42;;;;;;;28.63;48.10;100602.53;4993940;28;20072;-56
2022/08/07 17:18:17;;;;;;;1.25;1.10;;;;;;;28.55;47.44;100604.72;4988091;28;20065;-57
2022/08/07 17:21:09;;;;;;;1.95;1.10;;;;;;;28.55;46.93;100607.53;4997605;28;20053;-57
2022/08/07 17:24:03;;;;;;;1.15;1.02;;;;;;;28.53;47.52;100604.41;4994080;28;20064;-57
2022/08/07 17:27:04;;;;;;;1.55;1.13;;;;;;;28.54;47.72;100616.38;4996595;28;20045;-58
2022/08/07 17:30:05;;;;;;;1.98;1.30;;;;;;;28.57;47.61;100610.69;4993877;28;20049;-58
2022/08/07 17:33:06;;;;;;;4.22;1.13;;;;;;;28.59;47.00;100616.63;4996054;28;20054;-56
2022/08/07 17:36:04;;;;;;;1.42;1.20;;;;;;;28.59;47.01;100619.44;5004557;28;20048;-58
2022/08/07 17:38:53;;;;;;;1.42;1.00;;;;;;;28.59;47.30;100627.84;4972694;28;20049;-56
2022/08/07 17:41:47;;;;;;;1.70;1.30;;;;;;;28.60;47.00;100623.03;4986126;28;20041;-58
2022/08/07 17:44:50;;;;;;;2.20;1.15;;;;;;;28.58;47.06;100619.88;4974374;28;20042;-56
2022/08/07 17:47:49;;;;;;;3.30;1.33;;;;;;;28.58;47.06;100628.25;4976561;28;20050;-56
2022/08/07 17:50:43;;;;;;;2.10;1.67;;;;;;;28.61;47.68;100630.16;4974895;28;20045;-57
2022/08/07 17:53:46;;;;;;;1.40;1.30;;;;;;;28.56;49.17;100625.91;4979571;28;20041;-58
2022/08/07 17:56:50;;;;;;;1.10;1.00;;;;;;;28.52;48.25;100618.81;4994345;28;20041;-56
2022/08/07 17:59:47;;;;;;;1.63;0.95;;;;;;;28.48;47.54;100633.72;4992751;28;20433;-57
2022/08/07 18:02:45;;;;;;;2.20;0.98;;;;;;;28.49;48.02;100626.88;4986247;28;20046;-57
2022/08/07 18:05:38;;;;;;;1.65;1.10;;;;;;;28.50;47.62;100625.63;4993325;28;20061;-57
2022/08/07 18:08:29;;;;;;;3.08;1.02;;;;;;;28.45;48.35;100617.00;4991352;28;20118;-57
2022/08/07 18:11:33;;;;;;;8.07;1.90;;;;;;;28.35;48.88;100621.66;4991130;28;20062;-55
2022/08/07 18:14:44;;;;;;;10.88;1.67;;;;;;;28.23;49.91;100613.19;4995293;28;20401;-57
2022/08/07 18:17:39;;;;;;;15.05;3.63;;;;;;;28.20;50.61;100620.44;4991270;28;20045;-58
2022/08/07 18:20:37;;;;;;;5.80;1.77;;;;;;;28.25;50.42;100617.09;4985868;28;20046;-58
2022/08/07 18:23:41;;;;;;;8.57;2.00;;;;;;;28.31;50.69;100625.75;4992470;28;20041;-57
2022/08/07 18:27:07;;;;;;;6.25;2.20;;;;;;;28.30;51.21;100622.19;4992507;28;20050;-55
2022/08/07 18:30:14;;;;;;;15.10;2.47;;;;;;;28.22;51.80;100629.19;4992646;28;20057;-58
2022/08/07 18:33:37;;;;;;;5.22;2.00;;;;;;;28.19;52.22;100630.03;4978398;28;20221;-58
2022/08/07 18:36:40;;;;;;;4.72;1.48;;;;;;;28.19;52.55;100637.66;5006955;28;20056;-58
2022/08/07 18:39:43;;;;;;;4.80;1.63;;;;;;;28.16;52.88;100644.91;5000230;28;20052;-57
2022/08/07 18:42:48;;;;;;;4.60;1.75;;;;;;;28.23;52.97;100657.94;4991764;28;20045;-58
2022/08/07 18:45:45;;;;;;;3.47;1.73;;;;;;;28.20;53.01;100667.19;4996242;28;20050;-57
2022/08/07 18:48:41;;;;;;;1.75;1.65;;;;;;;28.18;53.24;100681.63;4991524;28;20049;-56
2022/08/07 18:51:33;;;;;;;2.22;1.50;;;;;;;28.14;53.54;100691.34;4992213;28;20053;-58
2022/08/07 18:54:29;;;;;;;5.05;2.13;;;;;;;28.07;53.42;100698.63;4995047;28;20053;-58
2022/08/07 18:57:28;;;;;;;3.08;2.20;;;;;;;28.07;53.53;100707.03;5000679;28;20045;-55
2022/08/07 19:00:15;;;;;;;6.55;2.28;;;;;;;28.08;53.41;100711.41;4986853;28;20061;-57
2022/08/07 19:03:29;;;;;;;2.90;2.08;;;;;;;28.09;53.26;100710.16;4992127;28;20045;-57
2022/08/07 19:06:17;;;;;;;6.13;1.73;;;;;;;28.09;53.22;100712.94;4981889;28;20070;-58
2022/08/07 19:09:08;;;;;;;2.60;1.80;;;;;;;28.13;53.08;100720.50;4992309;28;20049;-57
2022/08/07 19:12:18;;;;;;;5.82;1.77;;;;;;;28.13;52.93;100726.91;4977711;28;20061;-58
2022/08/07 19:15:18;;;;;;;3.92;1.70;;;;;;;28.09;53.10;100729.72;4996962;28;20058;-58
2022/08/07 19:18:18;;;;;;;3.55;1.55;;;;;;;28.07;53.41;100734.97;4996184;28;20052;-56
2022/08/07 19:21:21;;;;;;;2.28;2.08;;;;;;;28.08;53.64;100735.78;4987683;28;20049;-58
2022/08/07 19:24:17;;;;;;;3.75;2.10;;;;;;;28.08;53.14;100725.38;4982551;28;20398;-58
2022/08/07 19:27:05;;;;;;;8.02;3.10;;;;;;;28.08;53.41;100735.78;4988760;28;20615;-58
2022/08/07 19:30:00;;;;;;;5.53;2.10;;;;;;;28.08;52.94;100735.78;4986096;28;20185;-58
2022/08/07 19:32:50;;;;;;;3.45;2.30;;;;;;;28.05;53.21;100729.03;4976045;28;20058;-57
2022/08/07 19:35:37;;;;;;;2.53;2.10;;;;;;;28.03;53.21;100739.09;4989422;28;20045;-56
2022/08/07 19:38:26;;;;;;;2.63;2.00;;;;;;;28.03;53.25;100734.28;5007381;28;20243;-58
2022/08/07 19:41:12;;;;;;;2.90;1.80;;;;;;;28.05;52.71;100740.22;4979955;28;20054;-58
2022/08/07 19:44:00;;;;;;;2.42;2.22;;;;;;;28.08;53.21;100739.34;4990086;23;20429;-56
2022/08/07 19:46:49;;;;;;;3.45;1.83;;;;;;;28.08;53.01;100742.16;4978558;28;20050;-57
2022/08/07 19:49:49;;;;;;;2.10;1.70;;;;;;;28.08;52.57;100744.94;4972045;28;20049;-56
2022/08/07 19:52:34;;;;;;;2.08;1.88;;;;;;;28.03;52.89;100737.09;4957388;28;20062;-56
2022/08/07 19:55:21;;;;;;;3.30;1.65;;;;;;;28.08;52.82;100736.56;4965197;28;20045;-56
2022/08/07 19:58:11;;;;;;;3.90;1.90;;;;;;;28.08;52.30;100732.97;4963793;28;20062;-56
2022/08/07 20:00:57;;;;;;;2.00;1.75;;;;;;;28.08;52.76;100716.19;4954479;28;20058;-56
2022/08/07 20:03:45;;;;;;;3.97;2.03;;;;;;;28.07;52.75;100721.00;4956663;28;20409;-57
2022/08/07 20:06:30;;;;;;;2.20;1.88;;;;;;;28.02;52.83;100718.72;4974321;28;20042;-58
2022/08/07 20:09:15;;;;;;;2.78;1.60;;;;;;;27.98;52.81;100714.44;4966361;28;20517;-58
2022/08/07 20:12:01;;;;;;;4.13;1.75;;;;;;;27.95;53.06;100710.47;4960096;28;20514;-58
2022/08/07 20:14:48;;;;;;;2.38;2.00;;;;;;;27.86;53.59;100696.31;4958224;28;20066;-58
2022/08/07 20:17:35;;;;;;;5.05;3.13;;;;;;;27.66;54.50;100703.97;4957244;28;20046;-58
2022/08/07 20:20:21;;;;;;;5.43;3.30;;;;;;;27.65;54.51;100696.78;4968274;28;20062;-58
